TAR694 DTTJ-LFML
Flight info
| Callsign | TAR694 |
|---|---|
| Flight time | N/A |
| Altitude | 36000 |
| Route | TINAP1A TINAP A856 KIRAS UZ147 DIMAO UG6 SALMA DCT BAVON DCT OLNUL DCT RASPA UN854 TINOT |
| Aircraft | A320/M-SDE3FGHIRWY/LB1 |
Departure
| Time | 2026-04-26 12:05 |
|---|---|
| Airport | Djerba Zarzis International Airport (DTTJ) |
Arrival
| Time | N/A |
|---|---|
| Airport | Marseille Provence Airport (LFML) |
| Time | Latitude | Longitude | Altitude | Speed | Heading |
|---|---|---|---|---|---|
| 2026-04-26 11:51 | 33.87325 | 10.77724 | 27 ft | 0 kts | 178° |
| 2026-04-26 12:00 | 33.87337 | 10.77724 | 27 ft | 3 kts | 182° |
| 2026-04-26 12:00 | 33.87357 | 10.77726 | 27 ft | 3 kts | 195° |
| 2026-04-26 12:00 | 33.87375 | 10.77734 | 26 ft | 3 kts | 218° |
| 2026-04-26 12:01 | 33.87387 | 10.77750 | 26 ft | 2 kts | 260° |
| 2026-04-26 12:01 | 33.87388 | 10.77760 | 26 ft | 1 kts | 268° |
| 2026-04-26 12:01 | 33.87388 | 10.77761 | 26 ft | 0 kts | 268° |
| 2026-04-26 12:02 | 33.87387 | 10.77752 | 26 ft | 3 kts | 268° |
| 2026-04-26 12:02 | 33.87385 | 10.77655 | 30 ft | 15 kts | 268° |
| 2026-04-26 12:02 | 33.87382 | 10.77506 | 26 ft | 19 kts | 269° |
| 2026-04-26 12:03 | 33.87378 | 10.77357 | 27 ft | 17 kts | 268° |
| 2026-04-26 12:03 | 33.87366 | 10.77223 | 27 ft | 15 kts | 268° |
| 2026-04-26 12:03 | 33.87363 | 10.77100 | 27 ft | 15 kts | 268° |
| 2026-04-26 12:03 | 33.87360 | 10.76956 | 27 ft | 20 kts | 268° |
| 2026-04-26 12:04 | 33.87359 | 10.76779 | 23 ft | 18 kts | 279° |
| 2026-04-26 12:04 | 33.87467 | 10.76747 | 21 ft | 16 kts | 0° |
| 2026-04-26 12:04 | 33.87523 | 10.76793 | 19 ft | 11 kts | 82° |
| 2026-04-26 12:04 | 33.87524 | 10.76832 | 18 ft | 0 kts | 92° |
| 2026-04-26 12:05 | 33.87527 | 10.76968 | 19 ft | 53 kts | 88° |
| 2026-04-26 12:05 | 33.87548 | 10.77749 | 24 ft | 130 kts | 88° |
| 2026-04-26 12:05 | 33.87577 | 10.79005 | 179 ft | 176 kts | 86° |
| 2026-04-26 12:05 | 33.87569 | 10.80528 | 692 ft | 184 kts | 98° |
| 2026-04-26 12:06 | 33.87311 | 10.81513 | 1159 ft | 183 kts | 118° |
| 2026-04-26 12:06 | 33.86410 | 10.82586 | 1815 ft | 190 kts | 151° |
| 2026-04-26 12:06 | 33.85055 | 10.82823 | 2189 ft | 215 kts | 192° |
| 2026-04-26 12:06 | 33.83784 | 10.81841 | 2819 ft | 227 kts | 235° |
| 2026-04-26 12:07 | 33.83341 | 10.80043 | 3548 ft | 231 kts | 276° |
| 2026-04-26 12:07 | 33.83970 | 10.78308 | 4319 ft | 229 kts | 317° |
| 2026-04-26 12:07 | 33.85361 | 10.77436 | 5121 ft | 228 kts | 347° |
| 2026-04-26 12:07 | 33.86921 | 10.77110 | 5943 ft | 227 kts | 350° |
| 2026-04-26 12:08 | 33.88382 | 10.76369 | 6567 ft | 239 kts | 323° |
| 2026-04-26 12:08 | 33.89615 | 10.74878 | 6910 ft | 263 kts | 310° |
| 2026-04-26 12:08 | 33.90716 | 10.73072 | 7626 ft | 270 kts | 305° |
| 2026-04-26 12:08 | 33.91774 | 10.71190 | 8417 ft | 273 kts | 304° |
| 2026-04-26 12:09 | 33.92845 | 10.69291 | 9282 ft | 275 kts | 304° |
| 2026-04-26 12:09 | 33.93933 | 10.67416 | 10105 ft | 277 kts | 304° |
| 2026-04-26 12:09 | 33.95094 | 10.65470 | 10463 ft | 297 kts | 305° |
| 2026-04-26 12:09 | 33.96368 | 10.63383 | 10737 ft | 317 kts | 306° |
| 2026-04-26 12:10 | 33.97702 | 10.61232 | 11364 ft | 323 kts | 306° |
| 2026-04-26 12:10 | 33.99063 | 10.59058 | 12120 ft | 325 kts | 306° |
| 2026-04-26 12:10 | 34.00428 | 10.56880 | 12891 ft | 326 kts | 305° |
| 2026-04-26 12:10 | 34.01803 | 10.54686 | 13602 ft | 329 kts | 305° |
| 2026-04-26 12:11 | 34.03187 | 10.52475 | 14337 ft | 330 kts | 305° |
| 2026-04-26 12:11 | 34.04576 | 10.50260 | 14980 ft | 332 kts | 305° |
| 2026-04-26 12:11 | 34.05975 | 10.48023 | 15570 ft | 336 kts | 305° |
| 2026-04-26 12:11 | 34.07372 | 10.45782 | 16149 ft | 340 kts | 305° |
| 2026-04-26 12:12 | 34.08799 | 10.43490 | 16716 ft | 344 kts | 305° |
| 2026-04-26 12:12 | 34.10248 | 10.41160 | 17296 ft | 348 kts | 305° |
| 2026-04-26 12:12 | 34.11706 | 10.38812 | 17852 ft | 352 kts | 305° |
| 2026-04-26 12:12 | 34.12684 | 10.37237 | 18221 ft | 355 kts | 305° |
| 2026-04-26 12:13 | 34.14677 | 10.34025 | 18897 ft | 360 kts | 305° |
| 2026-04-26 12:13 | 34.16183 | 10.31600 | 19395 ft | 362 kts | 305° |
| 2026-04-26 12:13 | 34.17700 | 10.29159 | 19902 ft | 365 kts | 305° |
| 2026-04-26 12:13 | 34.19232 | 10.26693 | 20398 ft | 368 kts | 305° |
| 2026-04-26 12:14 | 34.20772 | 10.24211 | 20888 ft | 370 kts | 304° |
| 2026-04-26 12:14 | 34.22321 | 10.21714 | 21364 ft | 373 kts | 304° |
| 2026-04-26 12:14 | 34.23882 | 10.19197 | 21835 ft | 376 kts | 304° |
| 2026-04-26 12:14 | 34.25450 | 10.16659 | 22299 ft | 378 kts | 304° |
| 2026-04-26 12:15 | 34.27026 | 10.14100 | 22757 ft | 381 kts | 304° |
| 2026-04-26 12:15 | 34.28616 | 10.11519 | 23202 ft | 384 kts | 304° |
| 2026-04-26 12:15 | 34.30215 | 10.08921 | 23641 ft | 387 kts | 304° |
| 2026-04-26 12:15 | 34.31824 | 10.06305 | 24024 ft | 389 kts | 304° |
| 2026-04-26 12:16 | 34.33442 | 10.03678 | 24422 ft | 391 kts | 304° |
| 2026-04-26 12:16 | 34.35075 | 10.01026 | 24803 ft | 393 kts | 304° |
| 2026-04-26 12:16 | 34.36715 | 9.98365 | 25184 ft | 394 kts | 304° |
| 2026-04-26 12:16 | 34.38337 | 9.95735 | 25552 ft | 396 kts | 304° |
| 2026-04-26 12:17 | 34.40111 | 9.93116 | 25925 ft | 400 kts | 311° |
| 2026-04-26 12:17 | 34.42227 | 9.90898 | 26281 ft | 407 kts | 321° |
| 2026-04-26 12:17 | 34.44609 | 9.89085 | 26621 ft | 411 kts | 324° |
| 2026-04-26 12:17 | 34.47057 | 9.87295 | 26974 ft | 412 kts | 324° |
| 2026-04-26 12:18 | 34.49520 | 9.85489 | 27326 ft | 414 kts | 324° |
| 2026-04-26 12:18 | 34.51992 | 9.83674 | 27672 ft | 416 kts | 324° |
| 2026-04-26 12:18 | 34.54472 | 9.81849 | 27994 ft | 419 kts | 324° |
| 2026-04-26 12:18 | 34.56972 | 9.80008 | 28313 ft | 421 kts | 324° |
| 2026-04-26 12:19 | 34.59482 | 9.78159 | 28658 ft | 423 kts | 323° |
| 2026-04-26 12:19 | 34.62007 | 9.76298 | 29027 ft | 424 kts | 324° |
| 2026-04-26 12:19 | 34.64528 | 9.74438 | 29371 ft | 425 kts | 324° |
| 2026-04-26 12:19 | 34.67062 | 9.72565 | 29679 ft | 426 kts | 324° |
| 2026-04-26 12:20 | 34.69600 | 9.70685 | 29976 ft | 428 kts | 323° |
| 2026-04-26 12:20 | 34.72149 | 9.68796 | 30261 ft | 430 kts | 323° |
| 2026-04-26 12:20 | 34.74703 | 9.66903 | 30507 ft | 431 kts | 323° |
| 2026-04-26 12:20 | 34.77277 | 9.64996 | 30745 ft | 433 kts | 323° |
| 2026-04-26 12:21 | 34.79854 | 9.63085 | 30991 ft | 434 kts | 323° |
| 2026-04-26 12:21 | 34.82437 | 9.61166 | 31278 ft | 435 kts | 323° |
| 2026-04-26 12:21 | 34.84980 | 9.59275 | 31628 ft | 433 kts | 323° |
| 2026-04-26 12:21 | 34.87551 | 9.57368 | 31990 ft | 432 kts | 323° |
| 2026-04-26 12:22 | 34.90111 | 9.55471 | 32352 ft | 430 kts | 323° |
| 2026-04-26 12:22 | 34.92663 | 9.53572 | 32701 ft | 429 kts | 322° |
| 2026-04-26 12:22 | 34.95214 | 9.51672 | 33039 ft | 428 kts | 322° |
| 2026-04-26 12:22 | 34.97752 | 9.49777 | 33365 ft | 427 kts | 322° |
| 2026-04-26 12:23 | 35.00287 | 9.47884 | 33702 ft | 426 kts | 322° |
| 2026-04-26 12:23 | 35.02817 | 9.45995 | 34024 ft | 426 kts | 322° |
| 2026-04-26 12:23 | 35.05347 | 9.44104 | 34264 ft | 426 kts | 322° |
| 2026-04-26 12:23 | 35.07879 | 9.42211 | 34520 ft | 426 kts | 322° |
| 2026-04-26 12:24 | 35.10412 | 9.40318 | 34793 ft | 426 kts | 322° |
| 2026-04-26 12:24 | 35.12939 | 9.38428 | 35062 ft | 425 kts | 322° |
| 2026-04-26 12:24 | 35.15424 | 9.36568 | 35348 ft | 424 kts | 322° |
| 2026-04-26 12:25 | 35.20440 | 9.32798 | 35856 ft | 422 kts | 322° |
| 2026-04-26 12:25 | 35.22939 | 9.30920 | 36060 ft | 422 kts | 322° |
| 2026-04-26 12:25 | 35.27925 | 9.27177 | 36125 ft | 419 kts | 322° |
| 2026-04-26 12:26 | 35.32896 | 9.23441 | 36130 ft | 418 kts | 322° |
| 2026-04-26 12:26 | 35.37859 | 9.19702 | 36131 ft | 418 kts | 322° |
| 2026-04-26 12:27 | 35.42808 | 9.15961 | 36131 ft | 417 kts | 322° |
| 2026-04-26 12:27 | 35.47744 | 9.12224 | 36129 ft | 417 kts | 322° |
| 2026-04-26 12:28 | 35.52681 | 9.08487 | 36138 ft | 417 kts | 321° |
| 2026-04-26 12:28 | 35.57592 | 9.04711 | 36129 ft | 416 kts | 320° |
| 2026-04-26 12:29 | 35.62391 | 9.00815 | 36128 ft | 415 kts | 319° |
| 2026-04-26 12:30 | 35.68825 | 8.95529 | 36128 ft | 416 kts | 320° |